sensor_id;sensor_type;location;lat;lon;timestamp;P1;durP1;ratioP1;P2;durP2;ratioP2
47715;SDS011;33476;50.984;3.538;2023-08-17T00:00:15;3.67;;;3.17;;
47715;SDS011;33476;50.984;3.538;2023-08-17T00:02:43;6.63;;;3.20;;
47715;SDS011;33476;50.984;3.538;2023-08-17T00:05:08;7.15;;;3.75;;
47715;SDS011;33476;50.984;3.538;2023-08-17T00:07:34;3.67;;;3.35;;
47715;SDS011;33476;50.984;3.538;2023-08-17T00:10:00;5.00;;;2.85;;
47715;SDS011;33476;50.984;3.538;2023-08-17T00:12:25;5.30;;;3.38;;
47715;SDS011;33476;50.984;3.538;2023-08-17T00:14:51;3.97;;;3.22;;
47715;SDS011;33476;50.984;3.538;2023-08-17T00:17:17;9.32;;;3.20;;
47715;SDS011;33476;50.984;3.538;2023-08-17T00:19:42;4.60;;;3.35;;
47715;SDS011;33476;50.984;3.538;2023-08-17T00:22:08;3.58;;;3.28;;
47715;SDS011;33476;50.984;3.538;2023-08-17T00:24:33;4.10;;;3.38;;
47715;SDS011;33476;50.984;3.538;2023-08-17T00:26:59;6.40;;;3.40;;
47715;SDS011;33476;50.984;3.538;2023-08-17T00:29:24;4.00;;;3.60;;
47715;SDS011;33476;50.984;3.538;2023-08-17T00:31:50;6.40;;;3.67;;
47715;SDS011;33476;50.984;3.538;2023-08-17T00:34:16;4.30;;;3.72;;
47715;SDS011;33476;50.984;3.538;2023-08-17T00:36:41;7.80;;;3.75;;
47715;SDS011;33476;50.984;3.538;2023-08-17T00:39:06;4.85;;;3.70;;
47715;SDS011;33476;50.984;3.538;2023-08-17T00:41:32;4.97;;;3.40;;
47715;SDS011;33476;50.984;3.538;2023-08-17T00:43:57;4.85;;;3.28;;
47715;SDS011;33476;50.984;3.538;2023-08-17T00:46:22;4.22;;;3.15;;
47715;SDS011;33476;50.984;3.538;2023-08-17T00:48:49;3.42;;;2.80;;
47715;SDS011;33476;50.984;3.538;2023-08-17T00:51:14;6.38;;;3.67;;
47715;SDS011;33476;50.984;3.538;2023-08-17T00:53:40;3.33;;;2.65;;
47715;SDS011;33476;50.984;3.538;2023-08-17T00:56:06;2.88;;;2.60;;
47715;SDS011;33476;50.984;3.538;2023-08-17T00:58:32;4.00;;;2.50;;
47715;SDS011;33476;50.984;3.538;2023-08-17T01:00:58;5.35;;;2.53;;
47715;SDS011;33476;50.984;3.538;2023-08-17T01:03:23;3.58;;;2.33;;
47715;SDS011;33476;50.984;3.538;2023-08-17T01:05:53;6.47;;;2.75;;
47715;SDS011;33476;50.984;3.538;2023-08-17T01:08:18;9.13;;;2.92;;
47715;SDS011;33476;50.984;3.538;2023-08-17T01:13:38;5.85;;;2.17;;
47715;SDS011;33476;50.984;3.538;2023-08-17T01:16:15;3.55;;;2.15;;
47715;SDS011;33476;50.984;3.538;2023-08-17T01:18:49;2.97;;;1.77;;
47715;SDS011;33476;50.984;3.538;2023-08-17T01:21:17;2.78;;;1.88;;
47715;SDS011;33476;50.984;3.538;2023-08-17T01:23:48;4.20;;;2.03;;
47715;SDS011;33476;50.984;3.538;2023-08-17T01:26:14;4.47;;;2.40;;
47715;SDS011;33476;50.984;3.538;2023-08-17T01:28:42;2.95;;;1.80;;
47715;SDS011;33476;50.984;3.538;2023-08-17T01:31:11;3.00;;;1.88;;
47715;SDS011;33476;50.984;3.538;2023-08-17T01:33:50;2.83;;;2.20;;
47715;SDS011;33476;50.984;3.538;2023-08-17T01:36:20;2.78;;;1.50;;
47715;SDS011;33476;50.984;3.538;2023-08-17T01:38:51;2.80;;;1.60;;
47715;SDS011;33476;50.984;3.538;2023-08-17T01:41:17;10.32;;;2.05;;
47715;SDS011;33476;50.984;3.538;2023-08-17T01:43:45;3.88;;;1.58;;
47715;SDS011;33476;50.984;3.538;2023-08-17T01:46:15;4.10;;;1.58;;
47715;SDS011;33476;50.984;3.538;2023-08-17T01:48:45;2.42;;;1.58;;
47715;SDS011;33476;50.984;3.538;2023-08-17T01:51:11;2.63;;;1.55;;
47715;SDS011;33476;50.984;3.538;2023-08-17T01:53:40;3.63;;;1.80;;
47715;SDS011;33476;50.984;3.538;2023-08-17T01:56:06;6.75;;;1.65;;
47715;SDS011;33476;50.984;3.538;2023-08-17T01:58:31;3.90;;;1.33;;
47715;SDS011;33476;50.984;3.538;2023-08-17T02:00:56;4.50;;;1.50;;
47715;SDS011;33476;50.984;3.538;2023-08-17T02:03:22;6.53;;;1.65;;
47715;SDS011;33476;50.984;3.538;2023-08-17T02:05:47;3.90;;;1.33;;
47715;SDS011;33476;50.984;3.538;2023-08-17T02:08:12;8.77;;;1.67;;
47715;SDS011;33476;50.984;3.538;2023-08-17T02:10:38;1.77;;;1.60;;
47715;SDS011;33476;50.984;3.538;2023-08-17T02:13:04;6.22;;;1.25;;
47715;SDS011;33476;50.984;3.538;2023-08-17T02:15:29;3.35;;;1.05;;
47715;SDS011;33476;50.984;3.538;2023-08-17T02:17:56;4.80;;;1.45;;
47715;SDS011;33476;50.984;3.538;2023-08-17T02:20:22;2.63;;;1.10;;
47715;SDS011;33476;50.984;3.538;2023-08-17T02:22:47;2.58;;;1.27;;
47715;SDS011;33476;50.984;3.538;2023-08-17T02:25:13;6.70;;;1.42;;
47715;SDS011;33476;50.984;3.538;2023-08-17T02:27:38;3.58;;;1.33;;
47715;SDS011;33476;50.984;3.538;2023-08-17T02:30:04;2.22;;;1.25;;
47715;SDS011;33476;50.984;3.538;2023-08-17T02:32:29;4.15;;;1.50;;
47715;SDS011;33476;50.984;3.538;2023-08-17T02:34:55;3.92;;;1.20;;
47715;SDS011;33476;50.984;3.538;2023-08-17T02:37:20;10.80;;;1.52;;
47715;SDS011;33476;50.984;3.538;2023-08-17T02:39:46;3.20;;;1.33;;
47715;SDS011;33476;50.984;3.538;2023-08-17T02:42:11;3.25;;;1.20;;
47715;SDS011;33476;50.984;3.538;2023-08-17T02:44:36;5.80;;;0.90;;
47715;SDS011;33476;50.984;3.538;2023-08-17T02:47:02;2.97;;;0.77;;
47715;SDS011;33476;50.984;3.538;2023-08-17T02:49:27;3.40;;;1.20;;
47715;SDS011;33476;50.984;3.538;2023-08-17T02:51:52;2.72;;;1.15;;
47715;SDS011;33476;50.984;3.538;2023-08-17T02:54:18;2.38;;;1.15;;
47715;SDS011;33476;50.984;3.538;2023-08-17T02:56:43;2.20;;;1.10;;
47715;SDS011;33476;50.984;3.538;2023-08-17T02:59:08;3.67;;;1.08;;
47715;SDS011;33476;50.984;3.538;2023-08-17T03:01:34;2.78;;;1.02;;
47715;SDS011;33476;50.984;3.538;2023-08-17T03:04:00;2.80;;;1.13;;
47715;SDS011;33476;50.984;3.538;2023-08-17T03:06:25;7.20;;;1.10;;
47715;SDS011;33476;50.984;3.538;2023-08-17T03:08:50;8.07;;;1.35;;
47715;SDS011;33476;50.984;3.538;2023-08-17T03:11:17;3.15;;;1.40;;
47715;SDS011;33476;50.984;3.538;2023-08-17T03:13:43;2.17;;;1.10;;
47715;SDS011;33476;50.984;3.538;2023-08-17T03:16:08;3.05;;;1.10;;
47715;SDS011;33476;50.984;3.538;2023-08-17T03:18:33;8.63;;;1.20;;
47715;SDS011;33476;50.984;3.538;2023-08-17T03:20:59;3.28;;;1.20;;
47715;SDS011;33476;50.984;3.538;2023-08-17T03:23:24;2.60;;;1.27;;
47715;SDS011;33476;50.984;3.538;2023-08-17T03:25:53;4.47;;;1.23;;
47715;SDS011;33476;50.984;3.538;2023-08-17T03:28:19;3.05;;;1.02;;
47715;SDS011;33476;50.984;3.538;2023-08-17T03:30:44;3.08;;;1.02;;
47715;SDS011;33476;50.984;3.538;2023-08-17T03:33:09;3.55;;;1.08;;
47715;SDS011;33476;50.984;3.538;2023-08-17T03:35:35;2.35;;;1.10;;
47715;SDS011;33476;50.984;3.538;2023-08-17T03:38:00;8.10;;;1.15;;
47715;SDS011;33476;50.984;3.538;2023-08-17T03:40:26;2.53;;;1.30;;
47715;SDS011;33476;50.984;3.538;2023-08-17T03:42:51;2.55;;;1.20;;
47715;SDS011;33476;50.984;3.538;2023-08-17T03:45:17;4.22;;;1.23;;
47715;SDS011;33476;50.984;3.538;2023-08-17T03:47:43;3.10;;;0.82;;
47715;SDS011;33476;50.984;3.538;2023-08-17T03:50:09;5.95;;;1.48;;
47715;SDS011;33476;50.984;3.538;2023-08-17T03:52:35;2.15;;;1.08;;
47715;SDS011;33476;50.984;3.538;2023-08-17T03:55:00;2.25;;;0.95;;
47715;SDS011;33476;50.984;3.538;2023-08-17T03:57:26;2.42;;;1.25;;
47715;SDS011;33476;50.984;3.538;2023-08-17T03:59:51;2.72;;;1.30;;
47715;SDS011;33476;50.984;3.538;2023-08-17T04:02:17;5.45;;;1.15;;
47715;SDS011;33476;50.984;3.538;2023-08-17T04:04:42;7.78;;;1.20;;
47715;SDS011;33476;50.984;3.538;2023-08-17T04:07:07;2.70;;;1.40;;
47715;SDS011;33476;50.984;3.538;2023-08-17T04:09:33;2.30;;;1.10;;
47715;SDS011;33476;50.984;3.538;2023-08-17T04:11:59;3.38;;;1.13;;
47715;SDS011;33476;50.984;3.538;2023-08-17T04:14:24;4.00;;;1.00;;
47715;SDS011;33476;50.984;3.538;2023-08-17T04:16:50;1.25;;;0.80;;
47715;SDS011;33476;50.984;3.538;2023-08-17T04:19:15;4.47;;;1.25;;
47715;SDS011;33476;50.984;3.538;2023-08-17T04:21:41;3.35;;;1.55;;
47715;SDS011;33476;50.984;3.538;2023-08-17T04:24:06;3.75;;;1.80;;
47715;SDS011;33476;50.984;3.538;2023-08-17T04:26:32;3.25;;;2.03;;
47715;SDS011;33476;50.984;3.538;2023-08-17T04:28:57;4.70;;;1.75;;
47715;SDS011;33476;50.984;3.538;2023-08-17T04:31:23;4.05;;;2.22;;
47715;SDS011;33476;50.984;3.538;2023-08-17T04:33:48;6.32;;;2.75;;
47715;SDS011;33476;50.984;3.538;2023-08-17T04:36:13;6.07;;;2.70;;
47715;SDS011;33476;50.984;3.538;2023-08-17T04:38:39;12.60;;;5.03;;
47715;SDS011;33476;50.984;3.538;2023-08-17T04:41:04;15.80;;;6.93;;
47715;SDS011;33476;50.984;3.538;2023-08-17T04:43:29;21.33;;;9.05;;
47715;SDS011;33476;50.984;3.538;2023-08-17T04:45:55;20.67;;;8.88;;
47715;SDS011;33476;50.984;3.538;2023-08-17T04:48:20;14.13;;;5.32;;
47715;SDS011;33476;50.984;3.538;2023-08-17T04:50:46;12.10;;;4.85;;
47715;SDS011;33476;50.984;3.538;2023-08-17T04:53:11;7.45;;;3.42;;
47715;SDS011;33476;50.984;3.538;2023-08-17T04:55:36;8.50;;;3.63;;
47715;SDS011;33476;50.984;3.538;2023-08-17T04:58:02;6.50;;;3.17;;
47715;SDS011;33476;50.984;3.538;2023-08-17T05:00:27;8.43;;;3.90;;
47715;SDS011;33476;50.984;3.538;2023-08-17T05:02:56;4.78;;;3.10;;
47715;SDS011;33476;50.984;3.538;2023-08-17T05:05:22;4.10;;;2.83;;
47715;SDS011;33476;50.984;3.538;2023-08-17T05:07:48;3.75;;;2.30;;
47715;SDS011;33476;50.984;3.538;2023-08-17T05:10:13;3.30;;;1.65;;
47715;SDS011;33476;50.984;3.538;2023-08-17T05:12:39;4.30;;;1.70;;
47715;SDS011;33476;50.984;3.538;2023-08-17T05:15:04;3.38;;;1.33;;
47715;SDS011;33476;50.984;3.538;2023-08-17T05:17:30;3.78;;;1.30;;
47715;SDS011;33476;50.984;3.538;2023-08-17T05:19:55;5.30;;;1.42;;
47715;SDS011;33476;50.984;3.538;2023-08-17T05:22:21;4.65;;;1.65;;
47715;SDS011;33476;50.984;3.538;2023-08-17T05:24:46;4.63;;;1.45;;
47715;SDS011;33476;50.984;3.538;2023-08-17T05:27:12;2.25;;;1.10;;
47715;SDS011;33476;50.984;3.538;2023-08-17T05:29:37;4.28;;;1.67;;
47715;SDS011;33476;50.984;3.538;2023-08-17T05:32:03;7.45;;;2.20;;
47715;SDS011;33476;50.984;3.538;2023-08-17T05:34:28;5.90;;;2.60;;
47715;SDS011;33476;50.984;3.538;2023-08-17T05:36:54;3.72;;;2.40;;
47715;SDS011;33476;50.984;3.538;2023-08-17T05:39:19;5.55;;;2.42;;
47715;SDS011;33476;50.984;3.538;2023-08-17T05:41:44;2.53;;;1.90;;
47715;SDS011;33476;50.984;3.538;2023-08-17T05:44:10;4.38;;;1.83;;
47715;SDS011;33476;50.984;3.538;2023-08-17T05:46:35;3.50;;;1.58;;
47715;SDS011;33476;50.984;3.538;2023-08-17T05:49:01;4.90;;;1.60;;
47715;SDS011;33476;50.984;3.538;2023-08-17T05:51:27;2.55;;;1.35;;
47715;SDS011;33476;50.984;3.538;2023-08-17T05:53:53;3.67;;;1.50;;
47715;SDS011;33476;50.984;3.538;2023-08-17T05:56:19;9.02;;;1.60;;
47715;SDS011;33476;50.984;3.538;2023-08-17T05:58:44;3.88;;;1.60;;
47715;SDS011;33476;50.984;3.538;2023-08-17T06:01:10;3.80;;;1.40;;
47715;SDS011;33476;50.984;3.538;2023-08-17T06:03:36;4.32;;;1.40;;
47715;SDS011;33476;50.984;3.538;2023-08-17T06:06:03;2.15;;;1.50;;
47715;SDS011;33476;50.984;3.538;2023-08-17T06:08:30;5.70;;;1.48;;
47715;SDS011;33476;50.984;3.538;2023-08-17T06:10:56;3.92;;;1.60;;
47715;SDS011;33476;50.984;3.538;2023-08-17T06:13:21;2.42;;;1.60;;
47715;SDS011;33476;50.984;3.538;2023-08-17T06:15:47;3.78;;;1.33;;
47715;SDS011;33476;50.984;3.538;2023-08-17T06:18:12;8.05;;;1.65;;
47715;SDS011;33476;50.984;3.538;2023-08-17T06:20:38;3.22;;;1.38;;
47715;SDS011;33476;50.984;3.538;2023-08-17T06:23:03;4.60;;;1.35;;
47715;SDS011;33476;50.984;3.538;2023-08-17T06:25:29;3.72;;;1.27;;
47715;SDS011;33476;50.984;3.538;2023-08-17T06:27:54;6.32;;;1.80;;
47715;SDS011;33476;50.984;3.538;2023-08-17T06:30:20;6.43;;;1.55;;
47715;SDS011;33476;50.984;3.538;2023-08-17T06:32:46;6.50;;;1.75;;
47715;SDS011;33476;50.984;3.538;2023-08-17T06:35:11;4.85;;;1.42;;
47715;SDS011;33476;50.984;3.538;2023-08-17T06:37:36;4.28;;;1.33;;
47715;SDS011;33476;50.984;3.538;2023-08-17T06:40:03;4.20;;;1.80;;
47715;SDS011;33476;50.984;3.538;2023-08-17T06:42:30;3.97;;;1.52;;
47715;SDS011;33476;50.984;3.538;2023-08-17T06:44:55;7.88;;;1.98;;
47715;SDS011;33476;50.984;3.538;2023-08-17T06:47:21;2.28;;;1.65;;
47715;SDS011;33476;50.984;3.538;2023-08-17T06:49:46;5.68;;;2.10;;
47715;SDS011;33476;50.984;3.538;2023-08-17T06:52:12;5.32;;;1.50;;
47715;SDS011;33476;50.984;3.538;2023-08-17T06:54:37;3.45;;;1.63;;
47715;SDS011;33476;50.984;3.538;2023-08-17T06:57:03;3.05;;;1.42;;
47715;SDS011;33476;50.984;3.538;2023-08-17T06:59:28;3.90;;;1.45;;
47715;SDS011;33476;50.984;3.538;2023-08-17T07:01:53;4.63;;;1.70;;
47715;SDS011;33476;50.984;3.538;2023-08-17T07:04:19;4.90;;;1.63;;
47715;SDS011;33476;50.984;3.538;2023-08-17T07:06:44;4.85;;;1.42;;
47715;SDS011;33476;50.984;3.538;2023-08-17T07:09:10;5.85;;;1.55;;
47715;SDS011;33476;50.984;3.538;2023-08-17T07:11:37;3.13;;;1.55;;
47715;SDS011;33476;50.984;3.538;2023-08-17T07:14:03;7.95;;;1.30;;
47715;SDS011;33476;50.984;3.538;2023-08-17T07:16:28;2.38;;;1.27;;
47715;SDS011;33476;50.984;3.538;2023-08-17T07:18:54;5.43;;;1.25;;
47715;SDS011;33476;50.984;3.538;2023-08-17T07:21:19;4.30;;;1.10;;
47715;SDS011;33476;50.984;3.538;2023-08-17T07:23:45;4.65;;;1.30;;
47715;SDS011;33476;50.984;3.538;2023-08-17T07:26:11;10.65;;;0.98;;
47715;SDS011;33476;50.984;3.538;2023-08-17T07:28:36;3.90;;;0.90;;
47715;SDS011;33476;50.984;3.538;2023-08-17T07:31:02;7.28;;;1.00;;
47715;SDS011;33476;50.984;3.538;2023-08-17T07:33:27;3.70;;;0.80;;
47715;SDS011;33476;50.984;3.538;2023-08-17T07:35:53;7.13;;;0.88;;
47715;SDS011;33476;50.984;3.538;2023-08-17T07:38:20;4.88;;;0.90;;
47715;SDS011;33476;50.984;3.538;2023-08-17T07:40:46;4.85;;;0.60;;
47715;SDS011;33476;50.984;3.538;2023-08-17T07:43:11;3.05;;;0.60;;
47715;SDS011;33476;50.984;3.538;2023-08-17T07:45:37;2.28;;;0.50;;
47715;SDS011;33476;50.984;3.538;2023-08-17T07:48:02;2.95;;;0.82;;
47715;SDS011;33476;50.984;3.538;2023-08-17T07:50:28;1.65;;;0.73;;
47715;SDS011;33476;50.984;3.538;2023-08-17T07:52:53;5.15;;;0.80;;
47715;SDS011;33476;50.984;3.538;2023-08-17T07:55:18;4.10;;;0.50;;
47715;SDS011;33476;50.984;3.538;2023-08-17T07:57:44;4.55;;;0.80;;
47715;SDS011;33476;50.984;3.538;2023-08-17T08:00:09;6.07;;;0.77;;
47715;SDS011;33476;50.984;3.538;2023-08-17T08:02:35;2.83;;;0.65;;
47715;SDS011;33476;50.984;3.538;2023-08-17T08:05:00;5.13;;;1.08;;
47715;SDS011;33476;50.984;3.538;2023-08-17T08:07:26;4.05;;;0.88;;
47715;SDS011;33476;50.984;3.538;2023-08-17T08:09:51;6.28;;;1.00;;
47715;SDS011;33476;50.984;3.538;2023-08-17T08:12:16;3.75;;;0.55;;
47715;SDS011;33476;50.984;3.538;2023-08-17T08:14:42;2.75;;;0.80;;
47715;SDS011;33476;50.984;3.538;2023-08-17T08:17:07;3.55;;;0.85;;
47715;SDS011;33476;50.984;3.538;2023-08-17T08:19:32;4.70;;;1.00;;
47715;SDS011;33476;50.984;3.538;2023-08-17T08:21:58;5.28;;;1.15;;
47715;SDS011;33476;50.984;3.538;2023-08-17T08:24:23;4.13;;;1.00;;
47715;SDS011;33476;50.984;3.538;2023-08-17T08:26:49;4.43;;;1.15;;
47715;SDS011;33476;50.984;3.538;2023-08-17T08:29:16;7.13;;;1.15;;
47715;SDS011;33476;50.984;3.538;2023-08-17T08:31:41;5.35;;;1.15;;
47715;SDS011;33476;50.984;3.538;2023-08-17T08:34:06;3.53;;;1.13;;
47715;SDS011;33476;50.984;3.538;2023-08-17T08:36:32;7.22;;;1.17;;
47715;SDS011;33476;50.984;3.538;2023-08-17T08:38:57;3.38;;;1.23;;
47715;SDS011;33476;50.984;3.538;2023-08-17T08:41:22;4.43;;;0.70;;
47715;SDS011;33476;50.984;3.538;2023-08-17T08:43:52;4.95;;;1.17;;
47715;SDS011;33476;50.984;3.538;2023-08-17T08:46:18;2.25;;;0.95;;
47715;SDS011;33476;50.984;3.538;2023-08-17T08:48:45;8.52;;;1.02;;
47715;SDS011;33476;50.984;3.538;2023-08-17T08:51:16;5.72;;;1.40;;
47715;SDS011;33476;50.984;3.538;2023-08-17T08:53:48;5.82;;;1.15;;
47715;SDS011;33476;50.984;3.538;2023-08-17T08:56:25;4.47;;;0.95;;
47715;SDS011;33476;50.984;3.538;2023-08-17T08:58:50;5.35;;;1.40;;
47715;SDS011;33476;50.984;3.538;2023-08-17T09:01:17;4.53;;;1.52;;
47715;SDS011;33476;50.984;3.538;2023-08-17T09:03:44;4.82;;;1.48;;
47715;SDS011;33476;50.984;3.538;2023-08-17T09:06:11;6.32;;;1.38;;
47715;SDS011;33476;50.984;3.538;2023-08-17T09:08:38;7.60;;;2.13;;
47715;SDS011;33476;50.984;3.538;2023-08-17T09:11:05;4.72;;;2.00;;
47715;SDS011;33476;50.984;3.538;2023-08-17T09:13:30;5.18;;;1.75;;
47715;SDS011;33476;50.984;3.538;2023-08-17T09:15:57;8.48;;;2.28;;
47715;SDS011;33476;50.984;3.538;2023-08-17T09:18:24;5.63;;;2.15;;
47715;SDS011;33476;50.984;3.538;2023-08-17T09:20:51;9.15;;;2.63;;
47715;SDS011;33476;50.984;3.538;2023-08-17T09:23:18;6.15;;;1.85;;
47715;SDS011;33476;50.984;3.538;2023-08-17T09:28:14;6.10;;;1.50;;
47715;SDS011;33476;50.984;3.538;2023-08-17T09:31:02;6.05;;;1.65;;
47715;SDS011;33476;50.984;3.538;2023-08-17T09:33:30;9.13;;;2.17;;
47715;SDS011;33476;50.984;3.538;2023-08-17T09:35:57;5.53;;;2.15;;
47715;SDS011;33476;50.984;3.538;2023-08-17T09:38:24;3.95;;;1.95;;
47715;SDS011;33476;50.984;3.538;2023-08-17T09:40:49;5.63;;;2.25;;
47715;SDS011;33476;50.984;3.538;2023-08-17T09:43:15;4.78;;;2.20;;
47715;SDS011;33476;50.984;3.538;2023-08-17T09:45:42;7.20;;;2.92;;
47715;SDS011;33476;50.984;3.538;2023-08-17T09:48:14;4.07;;;2.33;;
47715;SDS011;33476;50.984;3.538;2023-08-17T09:50:42;13.13;;;2.50;;
47715;SDS011;33476;50.984;3.538;2023-08-17T09:53:12;5.50;;;2.33;;
47715;SDS011;33476;50.984;3.538;2023-08-17T09:55:46;5.70;;;2.20;;
47715;SDS011;33476;50.984;3.538;2023-08-17T09:58:12;8.57;;;2.63;;
47715;SDS011;33476;50.984;3.538;2023-08-17T10:00:40;5.78;;;2.20;;
47715;SDS011;33476;50.984;3.538;2023-08-17T10:03:09;6.80;;;1.70;;
47715;SDS011;33476;50.984;3.538;2023-08-17T10:05:36;3.88;;;2.40;;
47715;SDS011;33476;50.984;3.538;2023-08-17T10:08:04;10.02;;;2.90;;
47715;SDS011;33476;50.984;3.538;2023-08-17T10:10:32;8.73;;;2.20;;
47715;SDS011;33476;50.984;3.538;2023-08-17T10:15:31;3.97;;;1.48;;
47715;SDS011;33476;50.984;3.538;2023-08-17T10:18:00;6.15;;;1.70;;
47715;SDS011;33476;50.984;3.538;2023-08-17T10:20:27;5.78;;;1.85;;
47715;SDS011;33476;50.984;3.538;2023-08-17T10:23:10;5.55;;;2.25;;
47715;SDS011;33476;50.984;3.538;2023-08-17T10:25:40;5.70;;;1.88;;
47715;SDS011;33476;50.984;3.538;2023-08-17T10:28:07;7.40;;;2.20;;
47715;SDS011;33476;50.984;3.538;2023-08-17T10:30:34;10.15;;;2.38;;
47715;SDS011;33476;50.984;3.538;2023-08-17T10:33:01;3.95;;;2.20;;
47715;SDS011;33476;50.984;3.538;2023-08-17T10:35:28;3.90;;;1.65;;
47715;SDS011;33476;50.984;3.538;2023-08-17T10:37:55;5.13;;;1.90;;
47715;SDS011;33476;50.984;3.538;2023-08-17T10:40:27;7.53;;;2.58;;
47715;SDS011;33476;50.984;3.538;2023-08-17T10:42:54;4.20;;;2.28;;
47715;SDS011;33476;50.984;3.538;2023-08-17T10:45:30;3.13;;;2.33;;
47715;SDS011;33476;50.984;3.538;2023-08-17T10:50:34;4.05;;;2.22;;
47715;SDS011;33476;50.984;3.538;2023-08-17T10:53:04;6.43;;;1.92;;
47715;SDS011;33476;50.984;3.538;2023-08-17T10:55:44;6.38;;;2.63;;
47715;SDS011;33476;50.984;3.538;2023-08-17T10:58:12;6.03;;;2.28;;
47715;SDS011;33476;50.984;3.538;2023-08-17T11:00:38;6.22;;;2.70;;
47715;SDS011;33476;50.984;3.538;2023-08-17T11:05:37;6.93;;;2.45;;
47715;SDS011;33476;50.984;3.538;2023-08-17T11:08:05;4.47;;;2.42;;
47715;SDS011;33476;50.984;3.538;2023-08-17T11:10:32;6.38;;;2.70;;
47715;SDS011;33476;50.984;3.538;2023-08-17T11:12:58;4.28;;;2.30;;
47715;SDS011;33476;50.984;3.538;2023-08-17T11:18:10;4.43;;;1.67;;
47715;SDS011;33476;50.984;3.538;2023-08-17T11:20:37;4.88;;;1.70;;
47715;SDS011;33476;50.984;3.538;2023-08-17T11:23:05;3.25;;;1.98;;
47715;SDS011;33476;50.984;3.538;2023-08-17T11:25:31;5.63;;;1.85;;
47715;SDS011;33476;50.984;3.538;2023-08-17T11:27:57;3.55;;;1.67;;
47715;SDS011;33476;50.984;3.538;2023-08-17T11:30:24;5.03;;;1.88;;
47715;SDS011;33476;50.984;3.538;2023-08-17T11:32:52;4.28;;;1.75;;
47715;SDS011;33476;50.984;3.538;2023-08-17T11:35:19;7.20;;;2.20;;
47715;SDS011;33476;50.984;3.538;2023-08-17T11:37:44;3.70;;;2.22;;
47715;SDS011;33476;50.984;3.538;2023-08-17T11:40:11;6.07;;;2.25;;
47715;SDS011;33476;50.984;3.538;2023-08-17T11:42:37;3.33;;;1.73;;
47715;SDS011;33476;50.984;3.538;2023-08-17T11:45:04;4.75;;;1.83;;
47715;SDS011;33476;50.984;3.538;2023-08-17T11:47:30;3.97;;;1.77;;
47715;SDS011;33476;50.984;3.538;2023-08-17T11:50:00;4.22;;;1.80;;
47715;SDS011;33476;50.984;3.538;2023-08-17T11:52:26;2.97;;;1.88;;
47715;SDS011;33476;50.984;3.538;2023-08-17T11:54:56;4.53;;;2.00;;
47715;SDS011;33476;50.984;3.538;2023-08-17T11:57:21;4.57;;;2.53;;
47715;SDS011;33476;50.984;3.538;2023-08-17T11:59:47;8.88;;;2.80;;
47715;SDS011;33476;50.984;3.538;2023-08-17T12:02:12;5.88;;;2.30;;
47715;SDS011;33476;50.984;3.538;2023-08-17T12:04:37;5.97;;;2.63;;
47715;SDS011;33476;50.984;3.538;2023-08-17T12:07:03;7.85;;;3.22;;
47715;SDS011;33476;50.984;3.538;2023-08-17T12:09:29;4.85;;;2.38;;
47715;SDS011;33476;50.984;3.538;2023-08-17T12:12:00;5.95;;;2.85;;
47715;SDS011;33476;50.984;3.538;2023-08-17T12:14:27;6.93;;;2.75;;
47715;SDS011;33476;50.984;3.538;2023-08-17T12:16:52;9.27;;;2.38;;
47715;SDS011;33476;50.984;3.538;2023-08-17T12:19:21;5.47;;;2.65;;
47715;SDS011;33476;50.984;3.538;2023-08-17T12:21:49;5.68;;;2.55;;
47715;SDS011;33476;50.984;3.538;2023-08-17T12:24:15;5.57;;;2.42;;
47715;SDS011;33476;50.984;3.538;2023-08-17T12:26:44;6.47;;;2.22;;
47715;SDS011;33476;50.984;3.538;2023-08-17T12:29:09;3.00;;;2.08;;
47715;SDS011;33476;50.984;3.538;2023-08-17T12:31:35;5.80;;;2.70;;
47715;SDS011;33476;50.984;3.538;2023-08-17T12:34:00;4.00;;;3.28;;
47715;SDS011;33476;50.984;3.538;2023-08-17T12:36:26;9.68;;;2.90;;
47715;SDS011;33476;50.984;3.538;2023-08-17T12:38:51;5.93;;;4.18;;
47715;SDS011;33476;50.984;3.538;2023-08-17T12:41:17;4.65;;;3.97;;
47715;SDS011;33476;50.984;3.538;2023-08-17T12:43:42;20.25;;;4.25;;
47715;SDS011;33476;50.984;3.538;2023-08-17T12:46:08;7.00;;;3.90;;
47715;SDS011;33476;50.984;3.538;2023-08-17T12:48:33;7.45;;;3.60;;
47715;SDS011;33476;50.984;3.538;2023-08-17T12:50:59;5.82;;;3.15;;
47715;SDS011;33476;50.984;3.538;2023-08-17T12:53:24;7.00;;;4.28;;
47715;SDS011;33476;50.984;3.538;2023-08-17T12:55:49;7.15;;;3.83;;
47715;SDS011;33476;50.984;3.538;2023-08-17T12:58:15;6.45;;;3.65;;
47715;SDS011;33476;50.984;3.538;2023-08-17T13:00:40;4.93;;;3.25;;
47715;SDS011;33476;50.984;3.538;2023-08-17T13:03:06;7.15;;;3.25;;
47715;SDS011;33476;50.984;3.538;2023-08-17T13:05:32;7.85;;;3.30;;
47715;SDS011;33476;50.984;3.538;2023-08-17T13:07:58;5.53;;;3.85;;
47715;SDS011;33476;50.984;3.538;2023-08-17T13:10:23;6.72;;;4.68;;
47715;SDS011;33476;50.984;3.538;2023-08-17T13:12:49;6.97;;;4.30;;
47715;SDS011;33476;50.984;3.538;2023-08-17T13:15:18;12.95;;;5.05;;
47715;SDS011;33476;50.984;3.538;2023-08-17T13:17:43;8.07;;;5.45;;
47715;SDS011;33476;50.984;3.538;2023-08-17T13:20:09;9.57;;;6.03;;
47715;SDS011;33476;50.984;3.538;2023-08-17T13:22:35;7.75;;;6.57;;
47715;SDS011;33476;50.984;3.538;2023-08-17T13:25:00;7.60;;;6.80;;
47715;SDS011;33476;50.984;3.538;2023-08-17T13:27:27;11.57;;;7.07;;
47715;SDS011;33476;50.984;3.538;2023-08-17T13:29:52;12.00;;;7.75;;
47715;SDS011;33476;50.984;3.538;2023-08-17T13:32:18;12.35;;;8.27;;
47715;SDS011;33476;50.984;3.538;2023-08-17T13:34:43;19.10;;;8.30;;
47715;SDS011;33476;50.984;3.538;2023-08-17T13:37:08;9.52;;;7.18;;
47715;SDS011;33476;50.984;3.538;2023-08-17T13:39:34;12.73;;;7.07;;
47715;SDS011;33476;50.984;3.538;2023-08-17T13:41:59;9.50;;;7.32;;
47715;SDS011;33476;50.984;3.538;2023-08-17T13:44:24;10.00;;;7.05;;
47715;SDS011;33476;50.984;3.538;2023-08-17T13:46:50;8.68;;;7.30;;
47715;SDS011;33476;50.984;3.538;2023-08-17T13:49:15;10.07;;;6.47;;
47715;SDS011;33476;50.984;3.538;2023-08-17T13:51:40;10.02;;;6.75;;
47715;SDS011;33476;50.984;3.538;2023-08-17T13:54:06;7.80;;;6.40;;
47715;SDS011;33476;50.984;3.538;2023-08-17T13:56:32;6.90;;;5.95;;
47715;SDS011;33476;50.984;3.538;2023-08-17T13:58:57;17.30;;;6.80;;
47715;SDS011;33476;50.984;3.538;2023-08-17T14:01:23;9.05;;;5.72;;
47715;SDS011;33476;50.984;3.538;2023-08-17T14:03:48;10.77;;;5.50;;
47715;SDS011;33476;50.984;3.538;2023-08-17T14:06:13;8.70;;;5.18;;
47715;SDS011;33476;50.984;3.538;2023-08-17T14:08:40;7.60;;;4.97;;
47715;SDS011;33476;50.984;3.538;2023-08-17T14:11:06;5.97;;;4.90;;
47715;SDS011;33476;50.984;3.538;2023-08-17T14:13:31;6.90;;;4.78;;
47715;SDS011;33476;50.984;3.538;2023-08-17T14:15:58;8.50;;;5.82;;
47715;SDS011;33476;50.984;3.538;2023-08-17T14:18:24;7.93;;;6.40;;
47715;SDS011;33476;50.984;3.538;2023-08-17T14:20:50;5.47;;;4.97;;
47715;SDS011;33476;50.984;3.538;2023-08-17T14:23:15;5.70;;;5.18;;
47715;SDS011;33476;50.984;3.538;2023-08-17T14:25:40;6.60;;;5.88;;
47715;SDS011;33476;50.984;3.538;2023-08-17T14:28:06;7.43;;;5.30;;
47715;SDS011;33476;50.984;3.538;2023-08-17T14:30:32;10.52;;;7.40;;
47715;SDS011;33476;50.984;3.538;2023-08-17T14:32:58;8.65;;;6.75;;
47715;SDS011;33476;50.984;3.538;2023-08-17T14:35:23;9.73;;;8.18;;
47715;SDS011;33476;50.984;3.538;2023-08-17T14:37:49;10.73;;;7.95;;
47715;SDS011;33476;50.984;3.538;2023-08-17T14:40:14;11.80;;;8.50;;
47715;SDS011;33476;50.984;3.538;2023-08-17T14:42:39;10.07;;;9.00;;
47715;SDS011;33476;50.984;3.538;2023-08-17T14:45:05;13.95;;;9.07;;
47715;SDS011;33476;50.984;3.538;2023-08-17T14:47:31;13.85;;;9.43;;
47715;SDS011;33476;50.984;3.538;2023-08-17T14:49:56;11.30;;;9.02;;
47715;SDS011;33476;50.984;3.538;2023-08-17T14:52:21;14.10;;;8.57;;
47715;SDS011;33476;50.984;3.538;2023-08-17T14:54:47;13.18;;;8.88;;